OPMET & Warnings

Home ✈︎ OPMET & Warnings

Warnings

Home ✈︎ Warnings

METAR (LATI)

METAR LATI 200850Z 33004KT 300V060 CAVOK 31/19 Q1016 NOSIG=

METAR (LAKU)

METAR LAKU 200850Z VRB02KT CAVOK 30/16 Q1019=

TAF (LATI)

TAF LATI 200500Z 2006/2106 VRB05KT CAVOK TX38/2012Z TN20/2104Z TEMPO
2010/2016 34012KT=

TAF (LAKU)

TAF LAKU 200500Z 2006/2106 VRB05KT CAVOK TX38/2014Z TN21/2104Z TEMPO
2010/2017 36014KT=

ADWRNG (LATI)

ADWRNG (LAKU)